LEVC/VLC METAR and TAF weather

Enter ICAO airport designator
Station Type Date Time Source
LEVC METAR 2024/02/26 18:00 UTC NOAA

LEVC 261800Z 30016KT 9999 FEW050 16/M01 Q1001 NOSIG


Station Type Date Time Source
LEVC Decoded METAR 2024/02/26 18:00 UTC NOAA

Valencia / Aeropuerto, Spain (LEVC) 39-30N 000-28W 62M
Feb 26, 2024 - 01:00 PM EST / 2024.02.26 1800 UTC
Wind: from the WNW (300 degrees) at 18 MPH (16 KT):0
Visibility: greater than 7 mile(s):0
Sky conditions: mostly clear
Temperature: 60 F (16 C)
Dew Point: 30 F (-1 C)
Relative Humidity: 31%
Pressure (altimeter): 29.56 in. Hg (1001 hPa)
ob: LEVC 261800Z 30016KT 9999 FEW050 16/M01 Q1001 NOSIG
cycle: 18

Station Type Date Time Source
LEVC TAF 2024/02/26 18:27 UTC NOAA